Time;durP1;ratioP1;P1;durP2;ratioP2;P2;SDS_P1;SDS_P2;PMS_P1;PMS_P2;Temp;Humidity;BMP_temperature;BMP_pressure;BME280_temperature;BME280_humidity;BME280_pressure;Samples;Min_cycle;Max_cycle;Signal;HPM_P1;HPM_P2
2022/11/25 00:01:22;;;;;;;0.00;0.00;;;9.60;99.90;;;;;;5009662;28;20488;-64
2022/11/25 00:03:50;;;;;;;0.00;0.00;;;9.60;99.90;;;;;;5009754;28;20067;-64
2022/11/25 00:06:18;;;;;;;0.00;0.00;;;9.50;99.90;;;;;;5011292;28;20057;-64
2022/11/25 00:08:46;;;;;;;0.00;0.00;;;9.50;99.90;;;;;;5010765;28;20030;-64
2022/11/25 00:11:12;;;;;;;0.00;0.00;;;9.50;99.90;;;;;;5011010;28;20427;-65
2022/11/25 00:13:40;;;;;;;0.00;0.00;;;9.60;99.90;;;;;;5011288;28;20022;-64
2022/11/25 00:16:09;;;;;;;0.00;0.00;;;9.60;99.90;;;;;;5010627;28;20034;-65
2022/11/25 00:18:35;;;;;;;0.00;0.00;;;9.60;99.90;;;;;;5009886;28;20030;-63
2022/11/25 00:21:05;;;;;;;;;;;9.70;99.90;;;;;;5011288;28;20044;-64
2022/11/25 00:23:31;;;;;;;0.00;0.00;;;9.70;99.90;;;;;;5011372;28;19959;-65
2022/11/25 00:25:56;;;;;;;;;;;9.70;99.90;;;;;;5009707;28;20103;-64
2022/11/25 00:28:22;;;;;;;0.00;0.00;;;9.60;99.90;;;;;;5011104;28;20423;-64
2022/11/25 00:30:47;;;;;;;0.00;0.00;;;9.60;99.90;;;;;;5011111;28;20034;-66
2022/11/25 00:33:13;;;;;;;0.00;0.00;;;9.60;99.90;;;;;;5010526;28;20037;-64
2022/11/25 00:35:39;;;;;;;0.00;0.00;;;9.60;99.90;;;;;;5010323;28;20030;-65
2022/11/25 00:38:05;;;;;;;0.00;0.00;;;9.60;99.90;;;;;;5020319;28;20148;-64
2022/11/25 00:40:30;;;;;;;0.00;0.00;;;9.60;99.90;;;;;;5014682;28;20066;-64
2022/11/25 00:45:42;;;;;;;0.00;0.00;;;9.60;99.90;;;;;;5009822;28;20495;-65
2022/11/25 00:48:07;;;;;;;0.00;0.00;;;9.60;99.90;;;;;;5012338;28;20552;-64
2022/11/25 00:50:33;;;;;;;0.00;0.00;;;9.50;99.90;;;;;;5013330;28;20130;-64
2022/11/25 00:52:58;;;;;;;0.00;0.00;;;9.60;99.90;;;;;;5011857;28;20180;-64
2022/11/25 00:55:24;;;;;;;0.00;0.00;;;9.70;99.90;;;;;;5012089;28;20022;-64
2022/11/25 00:57:50;;;;;;;0.00;0.00;;;9.60;99.90;;;;;;5014882;28;20065;-63
2022/11/25 01:00:15;;;;;;;0.00;0.00;;;9.60;99.90;;;;;;5014930;28;20406;-64
2022/11/25 01:02:41;;;;;;;0.00;0.00;;;9.60;99.90;;;;;;5015224;28;20453;-64
2022/11/25 01:05:07;;;;;;;0.00;0.00;;;9.60;99.90;;;;;;5014815;28;20038;-64
2022/11/25 01:07:32;;;;;;;0.00;0.00;;;9.60;99.90;;;;;;5013820;28;20042;-64
2022/11/25 01:09:58;;;;;;;0.00;0.00;;;9.50;99.90;;;;;;5011687;28;20128;-64
2022/11/25 01:12:23;;;;;;;0.00;0.00;;;9.50;99.90;;;;;;5015488;28;20036;-65
2022/11/25 01:14:49;;;;;;;0.00;0.00;;;9.50;99.90;;;;;;5033430;28;20089;-64
2022/11/25 01:17:15;;;;;;;0.00;0.00;;;9.60;99.90;;;;;;5013845;28;20029;-64
2022/11/25 01:19:40;;;;;;;0.00;0.00;;;9.60;99.90;;;;;;5013901;28;20495;-65
2022/11/25 01:22:07;;;;;;;0.00;0.00;;;9.60;99.90;;;;;;5016348;28;20037;-64
2022/11/25 01:24:33;;;;;;;0.00;0.00;;;9.70;99.90;;;;;;5016541;28;20026;-64
2022/11/25 01:26:58;;;;;;;0.00;0.00;;;9.70;99.90;;;;;;5014168;28;20507;-64
2022/11/25 01:29:24;;;;;;;0.00;0.00;;;9.70;99.90;;;;;;5003474;28;20408;-64
2022/11/25 01:31:53;;;;;;;0.00;0.00;;;9.80;99.90;;;;;;5012621;28;20028;-64
2022/11/25 01:34:21;;;;;;;0.00;0.00;;;9.70;99.90;;;;;;5006225;28;20470;-64
2022/11/25 01:36:48;;;;;;;0.00;0.00;;;9.70;99.90;;;;;;5010762;28;20033;-65
2022/11/25 01:39:20;;;;;;;0.00;0.00;;;9.70;99.90;;;;;;5012413;28;20358;-64
2022/11/25 01:41:46;;;;;;;0.00;0.00;;;9.60;99.90;;;;;;5014045;28;20034;-64
2022/11/25 01:44:13;;;;;;;0.00;0.00;;;9.60;99.90;;;;;;5012603;28;20041;-64
2022/11/25 01:46:59;;;;;;;0.00;0.00;;;9.60;99.90;;;;;;5011874;28;20152;-65
2022/11/25 01:49:42;;;;;;;0.00;0.00;;;9.60;99.90;;;;;;5017513;28;20045;-64
2022/11/25 01:52:23;;;;;;;0.00;0.00;;;9.60;99.90;;;;;;5007713;28;20032;-65
2022/11/25 01:54:54;;;;;;;0.00;0.00;;;9.70;99.90;;;;;;5009512;28;20053;-65
2022/11/25 01:57:29;;;;;;;0.00;0.00;;;9.70;99.90;;;;;;5018320;28;20360;-63
2022/11/25 01:59:59;;;;;;;0.00;0.00;;;9.70;99.90;;;;;;5018365;28;20512;-64
2022/11/25 02:02:25;;;;;;;0.00;0.00;;;9.70;99.90;;;;;;5019181;28;20104;-64
2022/11/25 02:04:51;;;;;;;0.00;0.00;;;9.70;99.90;;;;;;5025916;28;20033;-65
2022/11/25 02:07:34;;;;;;;0.00;0.00;;;9.70;99.90;;;;;;5020962;28;20042;-64
2022/11/25 02:10:07;;;;;;;0.00;0.00;;;9.80;99.90;;;;;;5011722;28;20455;-65
2022/11/25 02:12:35;;;;;;;0.00;0.00;;;9.90;99.90;;;;;;5012482;28;20030;-64
2022/11/25 02:15:02;;;;;;;0.00;0.00;;;9.90;99.90;;;;;;5017206;28;20472;-65
2022/11/25 02:17:28;;;;;;;0.00;0.00;;;9.90;99.90;;;;;;5016098;28;20369;-64
2022/11/25 02:20:06;;;;;;;0.00;0.00;;;10.00;99.90;;;;;;5012918;28;20080;-64
2022/11/25 02:23:03;;;;;;;0.00;0.00;;;10.00;99.90;;;;;;5012692;28;20044;-64
2022/11/25 02:25:31;;;;;;;0.00;0.00;;;10.10;99.90;;;;;;5004451;28;20045;-63
2022/11/25 02:28:03;;;;;;;0.00;0.00;;;10.10;99.90;;;;;;5011353;28;20057;-64
2022/11/25 02:30:28;;;;;;;0.00;0.00;;;10.00;99.90;;;;;;5010383;28;20034;-63
2022/11/25 02:32:54;;;;;;;0.00;0.00;;;9.90;99.90;;;;;;5009902;28;20032;-65
2022/11/25 02:35:37;;;;;;;0.00;0.00;;;9.90;99.90;;;;;;5012703;28;20053;-66
2022/11/25 02:38:17;;;;;;;0.00;0.00;;;9.90;99.90;;;;;;5012930;28;20507;-65
2022/11/25 02:40:45;;;;;;;0.00;0.00;;;9.90;99.90;;;;;;5013269;28;20037;-65
2022/11/25 02:43:11;;;;;;;0.00;0.00;;;9.90;99.90;;;;;;5003797;28;20034;-64
2022/11/25 02:45:58;;;;;;;0.00;0.00;;;9.80;99.90;;;;;;5010127;28;20304;-64
2022/11/25 02:48:26;;;;;;;0.00;0.00;;;9.70;99.90;;;;;;5011731;28;20054;-64
2022/11/25 02:50:52;;;;;;;0.00;0.00;;;9.80;99.90;;;;;;5010014;28;20033;-65
2022/11/25 02:53:18;;;;;;;0.00;0.00;;;9.70;99.90;;;;;;5009170;28;20018;-65
2022/11/25 02:55:44;;;;;;;0.00;0.00;;;9.60;99.90;;;;;;5009728;28;20034;-64
2022/11/25 02:58:10;;;;;;;0.00;0.00;;;9.60;99.90;;;;;;5007216;28;20037;-65
2022/11/25 03:00:35;;;;;;;0.00;0.00;;;9.60;99.90;;;;;;5004094;28;20042;-65
2022/11/25 03:03:01;;;;;;;0.00;0.00;;;9.60;99.90;;;;;;5008512;28;20030;-64
2022/11/25 03:05:27;;;;;;;0.00;0.00;;;9.60;99.90;;;;;;5004659;28;20033;-64
2022/11/25 03:07:52;;;;;;;0.00;0.00;;;9.60;99.90;;;;;;5007460;28;20064;-66
2022/11/25 03:10:18;;;;;;;0.00;0.00;;;9.50;99.90;;;;;;5008220;28;20030;-64
2022/11/25 03:12:43;;;;;;;0.00;0.00;;;9.60;99.90;;;;;;5008475;28;20025;-64
2022/11/25 03:15:09;;;;;;;0.00;0.00;;;9.70;99.90;;;;;;5005440;28;20057;-65
2022/11/25 03:17:35;;;;;;;0.00;0.00;;;9.70;99.90;;;;;;5008492;28;20029;-65
2022/11/25 03:20:01;;;;;;;0.00;0.00;;;9.70;99.90;;;;;;5005420;28;20029;-65
2022/11/25 03:22:27;;;;;;;0.00;0.00;;;9.70;99.90;;;;;;5008388;28;20049;-64
2022/11/25 03:24:52;;;;;;;0.00;0.00;;;9.60;99.90;;;;;;5007611;28;20057;-65
2022/11/25 03:27:18;;;;;;;0.00;0.00;;;9.60;99.90;;;;;;5006509;28;20037;-65
2022/11/25 03:29:44;;;;;;;0.00;0.00;;;9.60;99.90;;;;;;5006874;28;20401;-65
2022/11/25 03:32:09;;;;;;;0.00;0.00;;;9.60;99.90;;;;;;5006953;28;21186;-65
2022/11/25 03:34:35;;;;;;;0.00;0.00;;;9.60;99.90;;;;;;5002572;28;20038;-65
2022/11/25 03:37:00;;;;;;;0.00;0.00;;;9.60;99.90;;;;;;5007554;28;20045;-64
2022/11/25 03:39:26;;;;;;;0.00;0.00;;;9.50;99.90;;;;;;5007458;28;20065;-64
2022/11/25 03:41:52;;;;;;;0.00;0.00;;;9.60;99.90;;;;;;5007251;28;20488;-65
2022/11/25 03:44:17;;;;;;;0.00;0.00;;;9.70;99.90;;;;;;5007544;28;20570;-64
2022/11/25 03:46:43;;;;;;;0.00;0.00;;;9.70;99.90;;;;;;5021914;28;20034;-65
2022/11/25 03:49:09;;;;;;;0.00;0.00;;;9.70;99.90;;;;;;5010006;28;20029;-65
2022/11/25 03:51:35;;;;;;;0.00;0.00;;;9.70;99.90;;;;;;5019030;28;20018;-65
2022/11/25 03:54:00;;;;;;;0.00;0.00;;;9.60;99.90;;;;;;5006838;28;20052;-65
2022/11/25 03:56:26;;;;;;;0.00;0.00;;;9.70;99.90;;;;;;5006639;28;20480;-64
2022/11/25 03:58:51;;;;;;;0.00;0.00;;;9.70;99.90;;;;;;5008350;28;20041;-64
2022/11/25 04:01:17;;;;;;;0.00;0.00;;;9.60;99.90;;;;;;5006871;28;20026;-65
2022/11/25 04:03:43;;;;;;;0.00;0.00;;;9.50;99.90;;;;;;5004146;28;20155;-63
2022/11/25 04:06:08;;;;;;;0.00;0.00;;;9.50;99.90;;;;;;5008619;28;20189;-64
2022/11/25 04:08:34;;;;;;;0.00;0.00;;;9.40;99.90;;;;;;5008004;28;20120;-64
2022/11/25 04:11:00;;;;;;;0.00;0.00;;;9.40;99.90;;;;;;5007960;28;20034;-64
2022/11/25 04:13:25;;;;;;;0.00;0.00;;;9.40;99.90;;;;;;5006886;28;20143;-65
2022/11/25 04:15:52;;;;;;;0.00;0.00;;;9.40;99.90;;;;;;5006320;28;20026;-65
2022/11/25 04:18:17;;;;;;;;;;;9.40;99.90;;;;;;5004597;28;20026;-65
2022/11/25 04:20:43;;;;;;;0.00;0.00;;;9.30;99.90;;;;;;5010400;28;19909;-65
2022/11/25 04:23:10;;;;;;;0.00;0.00;;;9.30;99.90;;;;;;5010217;28;20115;-64
2022/11/25 04:25:37;;;;;;;0.00;0.00;;;9.40;99.90;;;;;;5011067;28;20503;-64
2022/11/25 04:28:03;;;;;;;0.00;0.00;;;9.30;99.90;;;;;;5014469;28;20438;-64
2022/11/25 04:30:29;;;;;;;0.00;0.00;;;9.10;99.90;;;;;;5014469;28;20040;-64
2022/11/25 04:32:55;;;;;;;0.00;0.00;;;9.00;99.90;;;;;;5013802;28;20462;-65
2022/11/25 04:35:21;;;;;;;0.00;0.00;;;8.90;99.90;;;;;;5013850;28;20034;-65
2022/11/25 04:37:46;;;;;;;0.00;0.00;;;8.80;99.90;;;;;;5014507;28;20034;-63
2022/11/25 04:40:13;;;;;;;0.00;0.00;;;8.70;99.90;;;;;;5011635;28;20061;-64
2022/11/25 04:42:38;;;;;;;0.00;0.00;;;8.70;99.90;;;;;;5002344;28;20383;-65
2022/11/25 04:45:08;;;;;;;0.00;0.00;;;8.60;99.90;;;;;;5012668;28;20105;-64
2022/11/25 04:47:34;;;;;;;0.00;0.00;;;8.60;99.90;;;;;;5014052;28;20038;-64
2022/11/25 04:49:59;;;;;;;0.00;0.00;;;8.60;99.90;;;;;;5008633;28;20029;-64
2022/11/25 04:52:26;;;;;;;0.00;0.00;;;8.60;99.90;;;;;;5009726;28;20040;-64
2022/11/25 04:54:51;;;;;;;0.00;0.00;;;8.60;99.90;;;;;;5012310;28;20036;-64
2022/11/25 04:57:17;;;;;;;0.00;0.00;;;8.70;99.90;;;;;;5012634;28;20025;-64
2022/11/25 04:59:43;;;;;;;0.00;0.00;;;8.70;99.90;;;;;;5009204;28;20034;-64
2022/11/25 05:02:13;;;;;;;0.00;0.00;;;8.80;99.90;;;;;;5012012;28;20076;-65
2022/11/25 05:04:41;;;;;;;0.00;0.00;;;8.90;99.90;;;;;;5011085;28;20034;-64
2022/11/25 05:07:07;;;;;;;0.00;0.00;;;8.80;99.90;;;;;;5009370;28;20030;-64
2022/11/25 05:09:33;;;;;;;;;;;8.80;99.90;;;;;;5013001;28;20032;-64
2022/11/25 05:11:58;;;;;;;0.00;0.00;;;8.80;99.90;;;;;;5011659;28;19910;-64
2022/11/25 05:14:24;;;;;;;0.00;0.00;;;8.90;99.90;;;;;;5007739;28;20083;-64
2022/11/25 05:16:50;;;;;;;0.00;0.00;;;8.90;99.90;;;;;;5010595;28;20037;-65
2022/11/25 05:19:16;;;;;;;0.00;0.00;;;9.00;99.90;;;;;;5005391;28;20472;-65
2022/11/25 05:21:42;;;;;;;0.00;0.00;;;9.10;99.90;;;;;;5009350;28;20041;-64
2022/11/25 05:24:08;;;;;;;0.00;0.00;;;9.10;99.90;;;;;;5010921;28;20025;-63
2022/11/25 05:26:33;;;;;;;0.00;0.00;;;9.00;99.90;;;;;;5011607;28;20030;-64
2022/11/25 05:28:59;;;;;;;0.00;0.00;;;9.00;99.90;;;;;;5009954;28;20337;-64
2022/11/25 05:31:25;;;;;;;0.00;0.00;;;9.00;99.90;;;;;;5008916;28;20029;-64
2022/11/25 05:33:50;;;;;;;0.00;0.00;;;9.00;99.90;;;;;;5009303;28;20030;-64
2022/11/25 05:36:16;;;;;;;0.00;0.00;;;9.00;99.90;;;;;;5011578;28;20030;-64
2022/11/25 05:38:42;;;;;;;0.00;0.00;;;9.00;99.90;;;;;;5010320;28;20157;-64
2022/11/25 05:41:09;;;;;;;0.00;0.00;;;9.10;99.90;;;;;;5004156;28;20025;-65
2022/11/25 05:43:35;;;;;;;0.00;0.00;;;9.10;99.90;;;;;;5007921;28;20033;-64
2022/11/25 05:46:06;;;;;;;0.00;0.00;;;9.10;99.90;;;;;;5010164;28;20032;-64
2022/11/25 05:48:32;;;;;;;0.00;0.00;;;9.20;99.90;;;;;;5007315;28;20034;-65
2022/11/25 05:51:02;;;;;;;0.00;0.00;;;9.20;99.90;;;;;;5012034;28;20042;-64
2022/11/25 05:53:29;;;;;;;0.00;0.00;;;9.10;99.90;;;;;;5011851;28;20507;-65
2022/11/25 05:55:59;;;;;;;0.00;0.00;;;9.10;99.90;;;;;;5012757;28;20048;-65
2022/11/25 05:58:26;;;;;;;0.00;0.00;;;9.00;99.90;;;;;;5012541;28;20040;-65
2022/11/25 06:00:52;;;;;;;0.00;0.00;;;9.00;99.90;;;;;;5011251;28;20057;-64
2022/11/25 06:03:18;;;;;;;0.00;0.00;;;8.90;99.90;;;;;;5000773;28;20076;-65
2022/11/25 06:05:44;;;;;;;0.00;0.00;;;8.80;99.90;;;;;;5006053;28;20631;-65
2022/11/25 06:08:10;;;;;;;0.00;0.00;;;8.70;99.90;;;;;;5005296;28;20025;-65
2022/11/25 06:10:39;;;;;;;0.00;0.00;;;8.70;99.90;;;;;;5004870;28;20042;-66
2022/11/25 06:13:06;;;;;;;0.00;0.00;;;8.60;99.90;;;;;;5009299;28;20057;-65
2022/11/25 06:15:32;;;;;;;0.00;0.00;;;8.60;99.90;;;;;;5021899;28;20052;-64
2022/11/25 06:17:57;;;;;;;0.00;0.00;;;8.60;99.90;;;;;;5011853;28;20017;-64
2022/11/25 06:20:23;;;;;;;0.00;0.00;;;8.70;99.90;;;;;;5009923;28;20506;-65
2022/11/25 06:22:49;;;;;;;0.00;0.00;;;8.70;99.90;;;;;;5008715;28;20120;-66
2022/11/25 06:25:15;;;;;;;0.00;0.00;;;8.60;99.90;;;;;;5010820;28;20136;-66
2022/11/25 06:27:40;;;;;;;0.00;0.00;;;8.60;99.90;;;;;;5013031;28;20041;-64
2022/11/25 06:30:06;;;;;;;0.00;0.00;;;8.60;99.90;;;;;;5012367;28;20034;-64
2022/11/25 06:32:32;;;;;;;;;;;8.50;99.90;;;;;;5011883;28;20036;-65
2022/11/25 06:34:58;;;;;;;0.00;0.00;;;8.60;99.90;;;;;;5012463;28;20004;-65
2022/11/25 06:37:24;;;;;;;0.00;0.00;;;8.50;99.90;;;;;;5012290;28;20442;-65
2022/11/25 06:39:49;;;;;;;0.00;0.00;;;8.50;99.90;;;;;;5010086;28;20034;-64
2022/11/25 06:42:15;;;;;;;0.00;0.00;;;8.50;99.90;;;;;;5012724;28;20392;-65
2022/11/25 06:44:41;;;;;;;0.00;0.00;;;8.40;99.90;;;;;;5012519;28;20056;-64
2022/11/25 06:47:07;;;;;;;0.00;0.00;;;8.40;99.90;;;;;;5013111;28;20030;-65
2022/11/25 06:49:33;;;;;;;0.00;0.00;;;8.30;99.90;;;;;;5013068;28;20034;-65
2022/11/25 06:51:59;;;;;;;;;;;8.30;99.90;;;;;;5013274;28;20026;-65
2022/11/25 06:54:25;;;;;;;0.00;0.00;;;8.20;99.90;;;;;;5012630;28;19905;-65
2022/11/25 06:56:52;;;;;;;0.00;0.00;;;8.10;99.90;;;;;;5006909;28;20037;-65
2022/11/25 06:59:19;;;;;;;0.00;0.00;;;8.10;99.90;;;;;;5012051;28;20539;-65
2022/11/25 07:01:45;;;;;;;0.00;0.00;;;8.10;99.90;;;;;;5010877;28;20465;-65
2022/11/25 07:04:11;;;;;;;0.00;0.00;;;8.00;99.90;;;;;;5012655;28;20057;-65
2022/11/25 07:06:36;;;;;;;0.00;0.00;;;8.00;99.90;;;;;;5012251;28;20065;-64
2022/11/25 07:09:03;;;;;;;0.00;0.00;;;7.90;99.90;;;;;;5011918;28;20037;-66
2022/11/25 07:11:37;;;;;;;0.00;0.00;;;7.80;99.90;;;;;;5011990;28;20109;-65
2022/11/25 07:14:06;;;;;;;0.00;0.00;;;7.80;99.90;;;;;;5011697;28;20117;-65
2022/11/25 07:16:32;;;;;;;0.00;0.00;;;7.80;99.90;;;;;;5010931;28;20069;-64
2022/11/25 07:19:00;;;;;;;0.00;0.00;;;7.70;99.90;;;;;;5015296;28;20069;-64
2022/11/25 07:21:28;;;;;;;0.00;0.00;;;7.70;99.90;;;;;;5011590;28;20037;-64
2022/11/25 07:23:54;;;;;;;0.00;0.00;;;7.70;99.90;;;;;;5010676;28;20057;-65
2022/11/25 07:26:22;;;;;;;0.00;0.00;;;7.70;99.90;;;;;;5008305;28;20057;-65
2022/11/25 07:28:49;;;;;;;0.00;0.00;;;7.70;99.90;;;;;;5003712;28;20022;-64
2022/11/25 07:31:21;;;;;;;0.00;0.00;;;7.70;99.90;;;;;;5004595;28;20037;-65
2022/11/25 07:33:47;;;;;;;0.00;0.00;;;7.60;99.90;;;;;;5008911;28;20022;-65
2022/11/25 07:36:13;;;;;;;;;;;7.70;99.90;;;;;;5011868;28;20061;-63
2022/11/25 07:38:40;;;;;;;0.00;0.00;;;7.70;99.90;;;;;;5011601;28;19913;-65
2022/11/25 07:41:07;;;;;;;0.00;0.00;;;7.60;99.90;;;;;;5011651;28;20041;-64
2022/11/25 07:43:33;;;;;;;0.00;0.00;;;7.60;99.90;;;;;;5011471;28;20049;-66
2022/11/25 07:46:12;;;;;;;0.00;0.00;;;7.60;99.90;;;;;;5010203;28;20087;-65
2022/11/25 07:48:39;;;;;;;0.00;0.00;;;7.60;99.90;;;;;;5009473;28;20044;-65
2022/11/25 07:51:05;;;;;;;0.00;0.00;;;7.80;99.90;;;;;;5001395;28;20030;-65
2022/11/25 07:53:30;;;;;;;0.00;0.00;;;7.90;99.90;;;;;;5003736;28;20502;-65
2022/11/25 07:56:00;;;;;;;0.00;0.00;;;8.00;99.90;;;;;;5009604;28;20356;-66
2022/11/25 07:58:26;;;;;;;0.00;0.00;;;8.10;99.90;;;;;;5011857;28;20026;-65
2022/11/25 08:00:52;;;;;;;0.00;0.00;;;8.20;99.90;;;;;;5012362;28;20388;-65
2022/11/25 08:03:17;;;;;;;0.00;0.00;;;8.20;99.90;;;;;;5013495;28;20030;-65
2022/11/25 08:05:43;;;;;;;0.00;0.00;;;8.20;99.90;;;;;;5011513;28;20033;-66
2022/11/25 08:08:09;;;;;;;0.00;0.00;;;8.20;99.90;;;;;;5014897;28;20033;-65
2022/11/25 08:10:34;;;;;;;0.00;0.00;;;8.10;99.90;;;;;;5014695;28;20062;-64
2022/11/25 08:13:01;;;;;;;0.00;0.00;;;8.00;99.90;;;;;;5012511;28;20112;-64
2022/11/25 08:15:27;;;;;;;0.00;0.00;;;8.00;99.90;;;;;;5009497;28;20038;-65
2022/11/25 08:17:52;;;;;;;0.00;0.00;;;8.00;99.90;;;;;;5004650;28;20039;-65
2022/11/25 08:20:18;;;;;;;0.00;0.00;;;8.00;99.90;;;;;;5009263;28;20500;-65
2022/11/25 08:22:45;;;;;;;0.00;0.00;;;8.00;99.90;;;;;;5012902;28;20030;-64
2022/11/25 08:25:11;;;;;;;0.00;0.00;;;8.00;99.90;;;;;;5012947;28;20057;-66
2022/11/25 08:27:37;;;;;;;0.00;0.00;;;8.10;99.90;;;;;;5014445;28;20028;-65
2022/11/25 08:30:02;;;;;;;0.00;0.00;;;8.30;99.90;;;;;;5011103;28;20074;-65
2022/11/25 08:32:28;;;;;;;0.00;0.00;;;8.40;99.90;;;;;;5011536;28;20100;-66
2022/11/25 08:34:54;;;;;;;0.00;0.00;;;8.50;99.90;;;;;;5011459;28;20029;-65
2022/11/25 08:37:19;;;;;;;0.00;0.00;;;8.60;99.90;;;;;;5011735;28;20029;-66
2022/11/25 08:39:47;;;;;;;0.00;0.00;;;8.70;99.90;;;;;;5011639;28;20447;-66
2022/11/25 08:42:13;;;;;;;0.00;0.00;;;8.90;99.90;;;;;;5009884;28;20550;-66
2022/11/25 08:44:39;;;;;;;0.00;0.00;;;9.10;99.90;;;;;;5010387;28;20022;-64
2022/11/25 08:47:05;;;;;;;;;;;9.10;99.90;;;;;;5014383;28;20056;-65
2022/11/25 08:49:30;;;;;;;0.00;0.00;;;9.20;99.90;;;;;;5007375;28;19940;-66
2022/11/25 08:51:56;;;;;;;0.00;0.00;;;9.30;99.90;;;;;;5008302;28;20022;-67
2022/11/25 08:54:22;;;;;;;;;;;9.40;99.90;;;;;;5009029;28;20038;-65
2022/11/25 08:56:48;;;;;;;0.00;0.00;;;9.30;99.90;;;;;;5007163;28;19971;-66
2022/11/25 08:59:13;;;;;;;0.00;0.00;;;9.30;99.90;;;;;;5008332;28;20387;-65
2022/11/25 09:01:39;;;;;;;0.00;0.00;;;9.20;99.90;;;;;;5008524;28;20079;-65
2022/11/25 09:04:05;;;;;;;0.00;0.00;;;9.10;99.90;;;;;;5007529;28;20379;-65
2022/11/25 09:06:30;;;;;;;0.00;0.00;;;9.10;99.90;;;;;;5008315;28;20037;-66
2022/11/25 09:09:00;;;;;;;0.00;0.00;;;9.00;99.90;;;;;;5010222;28;20036;-65
2022/11/25 09:11:26;;;;;;;0.00;0.00;;;9.00;99.90;;;;;;5006910;28;20162;-65
2022/11/25 09:13:52;;;;;;;0.00;0.00;;;9.20;99.90;;;;;;5006165;28;20032;-64
2022/11/25 09:16:18;;;;;;;0.00;0.00;;;9.20;99.90;;;;;;5005819;28;20065;-67
2022/11/25 09:18:44;;;;;;;0.00;0.00;;;9.10;99.90;;;;;;5014214;28;20041;-65
2022/11/25 09:21:13;;;;;;;0.00;0.00;;;9.00;99.90;;;;;;5012974;28;20033;-66
2022/11/25 09:23:39;;;;;;;0.00;0.00;;;9.00;99.90;;;;;;5012149;28;20452;-65
2022/11/25 09:26:06;;;;;;;0.00;0.00;;;9.00;99.90;;;;;;5013720;28;20026;-65
2022/11/25 09:28:32;;;;;;;0.00;0.00;;;9.00;99.90;;;;;;5012990;28;20053;-65
2022/11/25 09:30:58;;;;;;;;;;;9.00;99.90;;;;;;5017095;28;20021;-65
2022/11/25 09:33:23;;;;;;;0.00;0.00;;;9.00;99.90;;;;;;5013131;28;20205;-64
2022/11/25 09:35:49;;;;;;;0.00;0.00;;;9.00;99.90;;;;;;5011663;28;20072;-65
2022/11/25 09:38:15;;;;;;;0.00;0.00;;;9.00;99.90;;;;;;5012614;28;20100;-65
2022/11/25 09:40:48;;;;;;;0.00;0.00;;;9.10;99.90;;;;;;5011867;28;20492;-65
2022/11/25 09:46:41;;;;;;;0.00;0.00;;;9.20;99.90;;;;;;5012262;28;20511;-65
2022/11/25 09:49:13;;;;;;;0.00;0.00;;;9.20;99.90;;;;;;5009849;28;20038;-66
2022/11/25 09:52:10;;;;;;;0.00;0.00;;;9.20;99.90;;;;;;5011634;28;20045;-66
2022/11/25 09:54:40;;;;;;;0.00;0.00;;;9.30;99.90;;;;;;5012692;28;20101;-65
2022/11/25 09:57:32;;;;;;;0.00;0.00;;;9.30;99.90;;;;;;5010653;28;20026;-65
2022/11/25 09:59:58;;;;;;;0.00;0.00;;;9.40;99.90;;;;;;5004864;28;20492;-65
2022/11/25 10:02:41;;;;;;;0.00;0.00;;;9.50;99.90;;;;;;5004271;28;20026;-66
2022/11/25 10:05:35;;;;;;;0.00;0.00;;;9.50;99.90;;;;;;5009691;28;20062;-65
2022/11/25 10:08:10;;;;;;;0.00;0.00;;;9.60;99.90;;;;;;5006805;28;20117;-65
2022/11/25 10:10:57;;;;;;;0.00;0.00;;;9.60;99.90;;;;;;5007292;28;20044;-66
2022/11/25 10:13:38;;;;;;;0.00;0.00;;;9.60;99.90;;;;;;5023453;28;20033;-65
2022/11/25 10:16:08;;;;;;;0.00;0.00;;;9.50;99.90;;;;;;5006807;28;20037;-65
2022/11/25 10:18:51;;;;;;;0.00;0.00;;;9.60;99.90;;;;;;5011283;28;20026;-65
2022/11/25 10:21:16;;;;;;;0.00;0.00;;;9.70;99.90;;;;;;5009872;28;20096;-65
2022/11/25 10:23:42;;;;;;;0.00;0.00;;;9.80;99.90;;;;;;5009361;28;20073;-65
2022/11/25 10:26:13;;;;;;;0.00;0.00;;;9.90;99.90;;;;;;5009194;28;20034;-65
2022/11/25 10:28:47;;;;;;;0.00;0.00;;;10.20;99.90;;;;;;5008585;28;20038;-66
2022/11/25 10:31:19;;;;;;;0.00;0.00;;;10.20;99.90;;;;;;5002044;28;20026;-65
2022/11/25 10:33:52;;;;;;;0.00;0.00;;;10.30;99.90;;;;;;5000851;28;20125;-66
2022/11/25 10:36:22;;;;;;;0.00;0.00;;;10.50;99.90;;;;;;5004723;28;20176;-65
2022/11/25 10:39:09;;;;;;;0.00;0.00;;;10.70;99.90;;;;;;5003674;28;20090;-65
2022/11/25 10:41:45;;;;;;;0.00;0.00;;;10.60;99.90;;;;;;5008819;28;20026;-65
2022/11/25 10:44:32;;;;;;;0.00;0.00;;;10.70;99.90;;;;;;5006424;28;20387;-65
2022/11/25 10:47:27;;;;;;;0.00;0.00;;;10.80;99.90;;;;;;5009658;28;20033;-67
2022/11/25 10:50:30;;;;;;;0.00;0.00;;;10.90;99.90;;;;;;5007292;28;20034;-66
2022/11/25 10:53:00;;;;;;;0.00;0.00;;;11.00;99.90;;;;;;5005856;28;20072;-65
2022/11/25 10:55:30;;;;;;;0.00;0.00;;;11.00;99.90;;;;;;5006484;28;20026;-67
2022/11/25 10:57:56;;;;;;;0.00;0.00;;;10.90;99.90;;;;;;5018586;28;20426;-66
2022/11/25 11:00:35;;;;;;;0.00;0.00;;;10.90;99.90;;;;;;4996118;28;20046;-66
2022/11/25 11:03:14;;;;;;;0.00;0.00;;;10.80;99.90;;;;;;5020318;28;20396;-65
2022/11/25 11:05:49;;;;;;;0.00;0.00;;;10.90;99.90;;;;;;5007009;28;20109;-65
2022/11/25 11:08:23;;;;;;;0.00;0.00;;;10.90;99.90;;;;;;5010385;28;20021;-66
2022/11/25 11:11:17;;;;;;;0.00;0.00;;;10.90;99.90;;;;;;5009499;28;20046;-66
2022/11/25 11:13:44;;;;;;;0.00;0.00;;;11.00;99.90;;;;;;5007147;28;20037;-65
2022/11/25 11:16:35;;;;;;;0.00;0.00;;;11.10;99.90;;;;;;5000167;28;20041;-66
2022/11/25 11:19:00;;;;;;;0.00;0.00;;;11.20;99.90;;;;;;5001415;28;20018;-66
2022/11/25 11:21:36;;;;;;;0.00;0.00;;;11.20;99.90;;;;;;5002711;28;20088;-65
2022/11/25 11:24:22;;;;;;;0.00;0.00;;;11.30;99.90;;;;;;5002234;28;20042;-66
2022/11/25 11:27:14;;;;;;;0.00;0.00;;;11.40;99.90;;;;;;5000329;28;20026;-66
2022/11/25 11:29:39;;;;;;;0.00;0.00;;;11.40;99.90;;;;;;5000536;28;20030;-66
2022/11/25 11:32:07;;;;;;;0.00;0.00;;;11.40;99.90;;;;;;4997973;28;20025;-66
2022/11/25 11:34:41;;;;;;;0.00;0.00;;;11.50;99.90;;;;;;5003719;28;20037;-66
2022/11/25 11:37:35;;;;;;;0.00;0.00;;;11.60;99.90;;;;;;5000076;28;20103;-65
2022/11/25 11:40:24;;;;;;;0.00;0.00;;;11.60;99.90;;;;;;4999921;28;20033;-70
2022/11/25 11:43:19;;;;;;;0.00;0.00;;;11.60;99.90;;;;;;5002869;28;20041;-65
2022/11/25 11:46:20;;;;;;;0.00;0.00;;;11.60;99.90;;;;;;5003517;28;20644;-66
2022/11/25 11:49:14;;;;;;;0.00;0.00;;;11.60;99.90;;;;;;5005133;28;20034;-65
2022/11/25 11:52:06;;;;;;;0.00;0.00;;;11.60;99.90;;;;;;5004553;28;20026;-66
2022/11/25 11:54:45;;;;;;;0.00;0.00;;;11.60;99.90;;;;;;5005293;28;20041;-66
2022/11/25 11:57:48;;;;;;;0.00;0.00;;;11.70;99.90;;;;;;5004649;28;20041;-66
2022/11/25 12:00:16;;;;;;;0.00;0.00;;;11.80;99.90;;;;;;5004154;28;20133;-65
2022/11/25 12:02:50;;;;;;;0.00;0.00;;;11.90;99.90;;;;;;4998832;28;20116;-66
2022/11/25 12:05:23;;;;;;;0.00;0.00;;;12.00;99.90;;;;;;5004201;28;20018;-66
2022/11/25 12:07:52;;;;;;;0.00;0.00;;;12.00;99.90;;;;;;5003728;28;20018;-65
2022/11/25 12:10:20;;;;;;;0.00;0.00;;;12.00;99.90;;;;;;5001232;28;20076;-65
2022/11/25 12:13:09;;;;;;;0.00;0.00;;;12.00;99.90;;;;;;5004512;28;20105;-66
2022/11/25 12:15:42;;;;;;;0.00;0.00;;;12.10;99.90;;;;;;5016677;28;20052;-66
2022/11/25 12:18:35;;;;;;;0.00;0.00;;;12.10;99.90;;;;;;5002690;28;20044;-65
2022/11/25 12:21:02;;;;;;;0.00;0.00;;;12.00;99.90;;;;;;5001133;28;20196;-65
2022/11/25 12:23:35;;;;;;;0.00;0.00;;;12.10;99.90;;;;;;5005737;28;20037;-66
2022/11/25 12:26:10;;;;;;;0.00;0.00;;;12.10;99.90;;;;;;5004701;28;20317;-65
2022/11/25 12:28:44;;;;;;;0.00;0.00;;;12.10;99.90;;;;;;5004604;28;20119;-65
2022/11/25 12:31:26;;;;;;;0.00;0.00;;;12.10;99.90;;;;;;5002899;28;20112;-65
2022/11/25 12:33:55;;;;;;;0.00;0.00;;;12.00;99.90;;;;;;5002934;28;20078;-63
2022/11/25 12:36:43;;;;;;;0.00;0.00;;;12.00;99.90;;;;;;5003821;28;20014;-65
2022/11/25 12:39:21;;;;;;;0.00;0.00;;;12.20;99.90;;;;;;5000289;28;20022;-66
2022/11/25 12:41:51;;;;;;;0.00;0.00;;;12.30;99.90;;;;;;4998468;28;20143;-66
2022/11/25 12:44:29;;;;;;;0.00;0.00;;;12.40;99.90;;;;;;5005153;28;20113;-65
2022/11/25 12:46:56;;;;;;;0.00;0.00;;;12.30;99.90;;;;;;5003453;28;20025;-65
2022/11/25 12:49:28;;;;;;;0.00;0.00;;;12.30;99.90;;;;;;5004784;28;20432;-66
2022/11/25 12:52:02;;;;;;;0.00;0.00;;;12.40;99.90;;;;;;5005112;28;20113;-66
2022/11/25 12:54:43;;;;;;;0.00;0.00;;;12.40;99.90;;;;;;5006158;28;20041;-64
2022/11/25 12:57:43;;;;;;;0.00;0.00;;;12.30;99.90;;;;;;5006682;28;20061;-64
2022/11/25 13:00:27;;;;;;;0.00;0.00;;;12.40;99.90;;;;;;5007188;28;20033;-64
2022/11/25 13:03:07;;;;;;;0.00;0.00;;;12.50;99.90;;;;;;5005038;28;21064;-65
2022/11/25 13:05:48;;;;;;;0.00;0.00;;;12.50;99.90;;;;;;5000099;28;20025;-64
2022/11/25 13:08:25;;;;;;;0.00;0.00;;;12.50;99.90;;;;;;5006449;28;20048;-66
2022/11/25 13:11:03;;;;;;;0.00;0.00;;;12.50;99.90;;;;;;4998949;28;20045;-66
2022/11/25 13:13:50;;;;;;;0.00;0.00;;;12.50;99.90;;;;;;4998655;28;21485;-66
2022/11/25 13:16:18;;;;;;;0.00;0.00;;;12.50;99.90;;;;;;5002565;28;20021;-68
2022/11/25 13:18:44;;;;;;;0.00;0.00;;;12.60;99.90;;;;;;5002630;28;20038;-67